Terminal Aerodrome Forecast
Issued by NWS

Home | Current Version | Previous Version | Text Only | Print | Product List | Glossary On
Versions: 1 2 3 4 5 6 7 8 9 10 11 12 13 14 15 16 17 18 19
000
FTUS46 KSEW 191700
TAFBFI
TAF
KBFI 191732Z 1918/2018 VRB06KT P6SM SCT025 BKN080
     FM192000 22006KT P6SM SCT040 BKN080
     FM192300 25004KT P6SM SCT040 BKN080
     FM200300 32003KT P6SM SCT080
     FM201100 VRB03KT P6SM OVC007=

USA.gov is the U.S. government's official web portal to all federal, state and local government web resources and services.